sensor_id;sensor_type;location;lat;lon;timestamp;P1;durP1;ratioP1;P2;durP2;ratioP2
9007;SDS011;62813;51.424;6.762;2023-04-25T00:00:49;11.80;;;4.50;;
9007;SDS011;62813;51.424;6.762;2023-04-25T00:03:17;9.63;;;3.80;;
9007;SDS011;62813;51.424;6.762;2023-04-25T00:05:45;12.10;;;4.23;;
9007;SDS011;62813;51.424;6.762;2023-04-25T00:08:11;14.13;;;4.60;;
9007;SDS011;62813;51.424;6.762;2023-04-25T00:10:38;9.50;;;4.07;;
9007;SDS011;62813;51.424;6.762;2023-04-25T00:13:05;15.83;;;4.97;;
9007;SDS011;62813;51.424;6.762;2023-04-25T00:15:32;11.60;;;4.30;;
9007;SDS011;62813;51.424;6.762;2023-04-25T00:17:59;10.23;;;4.07;;
9007;SDS011;62813;51.424;6.762;2023-04-25T00:20:26;9.63;;;4.37;;
9007;SDS011;62813;51.424;6.762;2023-04-25T00:22:52;11.30;;;4.47;;
9007;SDS011;62813;51.424;6.762;2023-04-25T00:25:19;12.83;;;4.47;;
9007;SDS011;62813;51.424;6.762;2023-04-25T00:27:46;15.53;;;4.93;;
9007;SDS011;62813;51.424;6.762;2023-04-25T00:30:13;12.90;;;4.43;;
9007;SDS011;62813;51.424;6.762;2023-04-25T00:32:40;10.53;;;4.70;;
9007;SDS011;62813;51.424;6.762;2023-04-25T00:35:06;13.87;;;5.40;;
9007;SDS011;62813;51.424;6.762;2023-04-25T00:37:33;10.80;;;4.90;;
9007;SDS011;62813;51.424;6.762;2023-04-25T00:40:00;11.47;;;4.23;;
9007;SDS011;62813;51.424;6.762;2023-04-25T00:42:26;12.43;;;3.90;;
9007;SDS011;62813;51.424;6.762;2023-04-25T00:44:53;16.80;;;4.63;;
9007;SDS011;62813;51.424;6.762;2023-04-25T00:47:19;13.50;;;4.80;;
9007;SDS011;62813;51.424;6.762;2023-04-25T00:49:46;11.27;;;5.30;;
9007;SDS011;62813;51.424;6.762;2023-04-25T00:52:15;8.57;;;3.93;;
9007;SDS011;62813;51.424;6.762;2023-04-25T00:54:42;14.83;;;5.17;;
9007;SDS011;62813;51.424;6.762;2023-04-25T00:57:08;10.43;;;4.30;;
9007;SDS011;62813;51.424;6.762;2023-04-25T00:59:35;12.93;;;5.40;;
9007;SDS011;62813;51.424;6.762;2023-04-25T01:02:04;13.17;;;4.67;;
9007;SDS011;62813;51.424;6.762;2023-04-25T01:04:31;12.13;;;5.67;;
9007;SDS011;62813;51.424;6.762;2023-04-25T01:06:58;8.40;;;4.23;;
9007;SDS011;62813;51.424;6.762;2023-04-25T01:09:24;10.30;;;4.90;;
9007;SDS011;62813;51.424;6.762;2023-04-25T01:11:52;11.13;;;4.70;;
9007;SDS011;62813;51.424;6.762;2023-04-25T01:14:18;11.33;;;4.93;;
9007;SDS011;62813;51.424;6.762;2023-04-25T01:16:45;12.37;;;4.80;;
9007;SDS011;62813;51.424;6.762;2023-04-25T01:19:11;12.07;;;4.67;;
9007;SDS011;62813;51.424;6.762;2023-04-25T01:21:41;9.70;;;4.90;;
9007;SDS011;62813;51.424;6.762;2023-04-25T01:24:08;11.03;;;5.07;;
9007;SDS011;62813;51.424;6.762;2023-04-25T01:26:35;12.60;;;4.97;;
9007;SDS011;62813;51.424;6.762;2023-04-25T01:29:03;16.43;;;5.97;;
9007;SDS011;62813;51.424;6.762;2023-04-25T01:31:30;14.67;;;5.37;;
9007;SDS011;62813;51.424;6.762;2023-04-25T01:33:57;14.83;;;5.53;;
9007;SDS011;62813;51.424;6.762;2023-04-25T01:36:24;11.07;;;5.33;;
9007;SDS011;62813;51.424;6.762;2023-04-25T01:38:50;12.27;;;5.00;;
9007;SDS011;62813;51.424;6.762;2023-04-25T01:41:17;11.63;;;5.07;;
9007;SDS011;62813;51.424;6.762;2023-04-25T01:43:44;14.03;;;4.77;;
9007;SDS011;62813;51.424;6.762;2023-04-25T01:46:11;11.73;;;4.97;;
9007;SDS011;62813;51.424;6.762;2023-04-25T01:48:38;12.60;;;5.13;;
9007;SDS011;62813;51.424;6.762;2023-04-25T01:51:04;13.37;;;5.00;;
9007;SDS011;62813;51.424;6.762;2023-04-25T01:53:31;11.50;;;4.90;;
9007;SDS011;62813;51.424;6.762;2023-04-25T01:55:58;11.60;;;4.77;;
9007;SDS011;62813;51.424;6.762;2023-04-25T01:58:24;11.60;;;5.20;;
9007;SDS011;62813;51.424;6.762;2023-04-25T02:00:51;11.00;;;5.23;;
9007;SDS011;62813;51.424;6.762;2023-04-25T02:03:17;11.07;;;4.67;;
9007;SDS011;62813;51.424;6.762;2023-04-25T02:05:44;9.43;;;4.73;;
9007;SDS011;62813;51.424;6.762;2023-04-25T02:08:10;15.17;;;5.27;;
9007;SDS011;62813;51.424;6.762;2023-04-25T02:10:37;16.23;;;4.70;;
9007;SDS011;62813;51.424;6.762;2023-04-25T02:13:04;10.53;;;5.40;;
9007;SDS011;62813;51.424;6.762;2023-04-25T02:15:31;12.23;;;4.77;;
9007;SDS011;62813;51.424;6.762;2023-04-25T02:17:58;9.87;;;4.47;;
9007;SDS011;62813;51.424;6.762;2023-04-25T02:20:26;9.87;;;5.03;;
9007;SDS011;62813;51.424;6.762;2023-04-25T02:22:53;8.93;;;4.50;;
9007;SDS011;62813;51.424;6.762;2023-04-25T02:25:20;12.10;;;4.57;;
9007;SDS011;62813;51.424;6.762;2023-04-25T02:27:47;15.97;;;4.90;;
9007;SDS011;62813;51.424;6.762;2023-04-25T02:30:16;7.13;;;4.00;;
9007;SDS011;62813;51.424;6.762;2023-04-25T02:32:42;8.53;;;4.60;;
9007;SDS011;62813;51.424;6.762;2023-04-25T02:35:09;14.87;;;4.87;;
9007;SDS011;62813;51.424;6.762;2023-04-25T02:37:37;14.17;;;5.60;;
9007;SDS011;62813;51.424;6.762;2023-04-25T02:40:03;12.57;;;4.47;;
9007;SDS011;62813;51.424;6.762;2023-04-25T02:42:30;10.50;;;4.40;;
9007;SDS011;62813;51.424;6.762;2023-04-25T02:44:57;9.10;;;4.67;;
9007;SDS011;62813;51.424;6.762;2023-04-25T02:47:24;8.73;;;4.07;;
9007;SDS011;62813;51.424;6.762;2023-04-25T02:49:50;13.60;;;4.90;;
9007;SDS011;62813;51.424;6.762;2023-04-25T02:52:17;10.23;;;4.50;;
9007;SDS011;62813;51.424;6.762;2023-04-25T02:54:44;10.63;;;4.97;;
9007;SDS011;62813;51.424;6.762;2023-04-25T02:57:10;15.30;;;5.03;;
9007;SDS011;62813;51.424;6.762;2023-04-25T02:59:37;11.13;;;4.47;;
9007;SDS011;62813;51.424;6.762;2023-04-25T03:02:03;12.63;;;4.50;;
9007;SDS011;62813;51.424;6.762;2023-04-25T03:04:31;13.50;;;4.57;;
9007;SDS011;62813;51.424;6.762;2023-04-25T03:06:59;13.90;;;4.40;;
9007;SDS011;62813;51.424;6.762;2023-04-25T03:09:26;8.43;;;4.13;;
9007;SDS011;62813;51.424;6.762;2023-04-25T03:11:53;10.07;;;4.20;;
9007;SDS011;62813;51.424;6.762;2023-04-25T03:14:20;11.80;;;4.23;;
9007;SDS011;62813;51.424;6.762;2023-04-25T03:16:46;13.30;;;5.80;;
9007;SDS011;62813;51.424;6.762;2023-04-25T03:19:15;14.23;;;5.20;;
9007;SDS011;62813;51.424;6.762;2023-04-25T03:21:45;9.83;;;4.70;;
9007;SDS011;62813;51.424;6.762;2023-04-25T03:24:12;13.13;;;4.70;;
9007;SDS011;62813;51.424;6.762;2023-04-25T03:26:38;11.33;;;4.77;;
9007;SDS011;62813;51.424;6.762;2023-04-25T03:29:05;18.97;;;4.47;;
9007;SDS011;62813;51.424;6.762;2023-04-25T03:31:32;16.67;;;4.40;;
9007;SDS011;62813;51.424;6.762;2023-04-25T03:33:58;11.20;;;4.30;;
9007;SDS011;62813;51.424;6.762;2023-04-25T03:36:25;13.53;;;4.83;;
9007;SDS011;62813;51.424;6.762;2023-04-25T03:38:52;12.40;;;4.67;;
9007;SDS011;62813;51.424;6.762;2023-04-25T03:41:18;18.00;;;5.57;;
9007;SDS011;62813;51.424;6.762;2023-04-25T03:43:45;10.57;;;5.07;;
9007;SDS011;62813;51.424;6.762;2023-04-25T03:46:12;19.57;;;4.80;;
9007;SDS011;62813;51.424;6.762;2023-04-25T03:48:42;14.53;;;4.70;;
9007;SDS011;62813;51.424;6.762;2023-04-25T03:51:09;12.13;;;4.90;;
9007;SDS011;62813;51.424;6.762;2023-04-25T03:53:35;15.60;;;5.00;;
9007;SDS011;62813;51.424;6.762;2023-04-25T03:56:02;21.10;;;5.47;;
9007;SDS011;62813;51.424;6.762;2023-04-25T03:58:29;18.00;;;5.70;;
9007;SDS011;62813;51.424;6.762;2023-04-25T04:00:56;20.53;;;5.60;;
9007;SDS011;62813;51.424;6.762;2023-04-25T04:03:22;17.70;;;5.63;;
9007;SDS011;62813;51.424;6.762;2023-04-25T04:05:49;14.13;;;4.97;;
9007;SDS011;62813;51.424;6.762;2023-04-25T04:08:16;18.90;;;6.00;;
9007;SDS011;62813;51.424;6.762;2023-04-25T04:10:43;20.70;;;8.03;;
9007;SDS011;62813;51.424;6.762;2023-04-25T04:13:10;13.70;;;5.23;;
9007;SDS011;62813;51.424;6.762;2023-04-25T04:15:37;12.70;;;5.37;;
9007;SDS011;62813;51.424;6.762;2023-04-25T04:18:03;15.87;;;5.47;;
9007;SDS011;62813;51.424;6.762;2023-04-25T04:20:30;17.00;;;5.67;;
9007;SDS011;62813;51.424;6.762;2023-04-25T04:22:57;14.07;;;5.17;;
9007;SDS011;62813;51.424;6.762;2023-04-25T04:25:26;13.57;;;5.37;;
9007;SDS011;62813;51.424;6.762;2023-04-25T04:27:52;18.23;;;6.07;;
9007;SDS011;62813;51.424;6.762;2023-04-25T04:30:24;13.73;;;5.20;;
9007;SDS011;62813;51.424;6.762;2023-04-25T04:32:52;18.43;;;5.30;;
9007;SDS011;62813;51.424;6.762;2023-04-25T04:35:18;15.43;;;5.00;;
9007;SDS011;62813;51.424;6.762;2023-04-25T04:37:45;15.30;;;5.00;;
9007;SDS011;62813;51.424;6.762;2023-04-25T04:40:12;15.83;;;5.83;;
9007;SDS011;62813;51.424;6.762;2023-04-25T04:42:42;15.93;;;6.67;;
9007;SDS011;62813;51.424;6.762;2023-04-25T04:45:09;15.07;;;5.67;;
9007;SDS011;62813;51.424;6.762;2023-04-25T04:47:36;15.80;;;6.87;;
9007;SDS011;62813;51.424;6.762;2023-04-25T04:50:03;14.40;;;5.37;;
9007;SDS011;62813;51.424;6.762;2023-04-25T04:52:34;16.83;;;5.87;;
9007;SDS011;62813;51.424;6.762;2023-04-25T04:55:02;16.03;;;4.87;;
9007;SDS011;62813;51.424;6.762;2023-04-25T04:57:29;18.23;;;6.73;;
9007;SDS011;62813;51.424;6.762;2023-04-25T04:59:57;16.10;;;6.63;;
9007;SDS011;62813;51.424;6.762;2023-04-25T05:02:23;15.30;;;4.83;;
9007;SDS011;62813;51.424;6.762;2023-04-25T05:04:50;17.80;;;5.13;;
9007;SDS011;62813;51.424;6.762;2023-04-25T05:07:18;14.73;;;5.53;;
9007;SDS011;62813;51.424;6.762;2023-04-25T05:09:44;14.60;;;5.43;;
9007;SDS011;62813;51.424;6.762;2023-04-25T05:12:11;15.07;;;6.00;;
9007;SDS011;62813;51.424;6.762;2023-04-25T05:14:38;18.43;;;6.17;;
9007;SDS011;62813;51.424;6.762;2023-04-25T05:17:04;12.63;;;5.47;;
9007;SDS011;62813;51.424;6.762;2023-04-25T05:19:34;13.53;;;5.13;;
9007;SDS011;62813;51.424;6.762;2023-04-25T05:22:02;23.80;;;6.43;;
9007;SDS011;62813;51.424;6.762;2023-04-25T05:24:29;19.10;;;5.40;;
9007;SDS011;62813;51.424;6.762;2023-04-25T05:26:55;14.57;;;4.40;;
9007;SDS011;62813;51.424;6.762;2023-04-25T05:29:22;14.97;;;5.40;;
9007;SDS011;62813;51.424;6.762;2023-04-25T05:31:48;16.33;;;5.57;;
9007;SDS011;62813;51.424;6.762;2023-04-25T05:34:15;15.57;;;5.47;;
9007;SDS011;62813;51.424;6.762;2023-04-25T05:36:42;20.63;;;5.67;;
9007;SDS011;62813;51.424;6.762;2023-04-25T05:39:09;15.97;;;4.60;;
9007;SDS011;62813;51.424;6.762;2023-04-25T05:41:36;14.27;;;4.47;;
9007;SDS011;62813;51.424;6.762;2023-04-25T05:44:03;12.97;;;5.23;;
9007;SDS011;62813;51.424;6.762;2023-04-25T05:46:29;15.97;;;5.03;;
9007;SDS011;62813;51.424;6.762;2023-04-25T05:48:56;18.47;;;5.10;;
9007;SDS011;62813;51.424;6.762;2023-04-25T05:51:22;13.50;;;4.80;;
9007;SDS011;62813;51.424;6.762;2023-04-25T05:53:49;15.43;;;5.60;;
9007;SDS011;62813;51.424;6.762;2023-04-25T05:56:16;17.90;;;5.17;;
9007;SDS011;62813;51.424;6.762;2023-04-25T05:58:43;14.23;;;5.00;;
9007;SDS011;62813;51.424;6.762;2023-04-25T06:01:10;14.30;;;5.50;;
9007;SDS011;62813;51.424;6.762;2023-04-25T06:03:36;13.90;;;4.70;;
9007;SDS011;62813;51.424;6.762;2023-04-25T06:06:05;16.20;;;5.40;;
9007;SDS011;62813;51.424;6.762;2023-04-25T06:08:32;19.10;;;5.43;;
9007;SDS011;62813;51.424;6.762;2023-04-25T06:10:58;16.13;;;5.20;;
9007;SDS011;62813;51.424;6.762;2023-04-25T06:13:25;16.83;;;4.63;;
9007;SDS011;62813;51.424;6.762;2023-04-25T06:15:51;12.37;;;4.90;;
9007;SDS011;62813;51.424;6.762;2023-04-25T06:18:18;9.63;;;4.03;;
9007;SDS011;62813;51.424;6.762;2023-04-25T06:20:45;17.97;;;4.60;;
9007;SDS011;62813;51.424;6.762;2023-04-25T06:23:12;14.00;;;4.43;;
9007;SDS011;62813;51.424;6.762;2023-04-25T06:25:38;12.17;;;4.33;;
9007;SDS011;62813;51.424;6.762;2023-04-25T06:28:05;13.53;;;3.83;;
9007;SDS011;62813;51.424;6.762;2023-04-25T06:30:31;8.97;;;3.57;;
9007;SDS011;62813;51.424;6.762;2023-04-25T06:32:58;16.27;;;3.87;;
9007;SDS011;62813;51.424;6.762;2023-04-25T06:35:25;12.33;;;4.27;;
9007;SDS011;62813;51.424;6.762;2023-04-25T06:37:51;18.03;;;4.50;;
9007;SDS011;62813;51.424;6.762;2023-04-25T06:40:21;18.80;;;4.10;;
9007;SDS011;62813;51.424;6.762;2023-04-25T06:42:47;17.67;;;4.30;;
9007;SDS011;62813;51.424;6.762;2023-04-25T06:45:14;10.87;;;4.10;;
9007;SDS011;62813;51.424;6.762;2023-04-25T06:47:40;16.10;;;4.50;;
9007;SDS011;62813;51.424;6.762;2023-04-25T06:50:07;17.20;;;4.57;;
9007;SDS011;62813;51.424;6.762;2023-04-25T06:52:34;18.60;;;4.77;;
9007;SDS011;62813;51.424;6.762;2023-04-25T06:55:00;20.57;;;5.13;;
9007;SDS011;62813;51.424;6.762;2023-04-25T06:57:27;15.40;;;4.93;;
9007;SDS011;62813;51.424;6.762;2023-04-25T06:59:53;14.33;;;4.67;;
9007;SDS011;62813;51.424;6.762;2023-04-25T07:02:20;21.73;;;4.30;;
9007;SDS011;62813;51.424;6.762;2023-04-25T07:04:48;19.97;;;3.90;;
9007;SDS011;62813;51.424;6.762;2023-04-25T07:07:15;11.93;;;3.97;;
9007;SDS011;62813;51.424;6.762;2023-04-25T07:09:41;14.60;;;4.57;;
9007;SDS011;62813;51.424;6.762;2023-04-25T07:12:08;14.67;;;4.53;;
9007;SDS011;62813;51.424;6.762;2023-04-25T07:14:34;12.93;;;4.47;;
9007;SDS011;62813;51.424;6.762;2023-04-25T07:17:01;15.93;;;5.20;;
9007;SDS011;62813;51.424;6.762;2023-04-25T07:19:28;18.80;;;4.70;;
9007;SDS011;62813;51.424;6.762;2023-04-25T07:21:56;13.40;;;4.27;;
9007;SDS011;62813;51.424;6.762;2023-04-25T07:24:22;15.23;;;4.70;;
9007;SDS011;62813;51.424;6.762;2023-04-25T07:26:49;15.23;;;4.27;;
9007;SDS011;62813;51.424;6.762;2023-04-25T07:29:16;17.10;;;4.30;;
9007;SDS011;62813;51.424;6.762;2023-04-25T07:31:43;13.40;;;5.17;;
9007;SDS011;62813;51.424;6.762;2023-04-25T07:34:09;15.27;;;4.20;;
9007;SDS011;62813;51.424;6.762;2023-04-25T07:36:36;10.40;;;4.07;;
9007;SDS011;62813;51.424;6.762;2023-04-25T07:39:03;15.57;;;4.10;;
9007;SDS011;62813;51.424;6.762;2023-04-25T07:41:29;12.57;;;3.80;;
9007;SDS011;62813;51.424;6.762;2023-04-25T07:43:56;11.37;;;4.57;;
9007;SDS011;62813;51.424;6.762;2023-04-25T07:46:23;20.27;;;4.30;;
9007;SDS011;62813;51.424;6.762;2023-04-25T07:48:50;17.53;;;5.57;;
9007;SDS011;62813;51.424;6.762;2023-04-25T07:51:17;13.60;;;5.50;;
9007;SDS011;62813;51.424;6.762;2023-04-25T07:53:46;17.37;;;5.83;;
9007;SDS011;62813;51.424;6.762;2023-04-25T07:56:15;13.50;;;4.30;;
9007;SDS011;62813;51.424;6.762;2023-04-25T07:58:42;16.63;;;4.20;;
9007;SDS011;62813;51.424;6.762;2023-04-25T08:01:08;11.67;;;3.67;;
9007;SDS011;62813;51.424;6.762;2023-04-25T08:03:35;13.40;;;3.83;;
9007;SDS011;62813;51.424;6.762;2023-04-25T08:06:02;17.57;;;3.27;;
9007;SDS011;62813;51.424;6.762;2023-04-25T08:08:33;12.43;;;3.37;;
9007;SDS011;62813;51.424;6.762;2023-04-25T08:11:00;11.77;;;3.17;;
9007;SDS011;62813;51.424;6.762;2023-04-25T08:13:26;12.50;;;3.93;;
9007;SDS011;62813;51.424;6.762;2023-04-25T08:15:55;10.50;;;3.00;;
9007;SDS011;62813;51.424;6.762;2023-04-25T08:18:22;10.67;;;3.07;;
9007;SDS011;62813;51.424;6.762;2023-04-25T08:20:48;8.30;;;2.80;;
9007;SDS011;62813;51.424;6.762;2023-04-25T08:23:15;13.93;;;3.10;;
9007;SDS011;62813;51.424;6.762;2023-04-25T08:25:41;10.77;;;3.10;;
9007;SDS011;62813;51.424;6.762;2023-04-25T08:28:08;13.77;;;3.80;;
9007;SDS011;62813;51.424;6.762;2023-04-25T08:30:37;11.83;;;3.70;;
9007;SDS011;62813;51.424;6.762;2023-04-25T08:33:04;12.20;;;3.23;;
9007;SDS011;62813;51.424;6.762;2023-04-25T08:35:33;6.87;;;2.60;;
9007;SDS011;62813;51.424;6.762;2023-04-25T08:37:59;13.67;;;3.23;;
9007;SDS011;62813;51.424;6.762;2023-04-25T08:40:27;14.13;;;3.33;;
9007;SDS011;62813;51.424;6.762;2023-04-25T08:42:59;13.20;;;3.07;;
9007;SDS011;62813;51.424;6.762;2023-04-25T08:45:27;14.03;;;2.90;;
9007;SDS011;62813;51.424;6.762;2023-04-25T08:47:54;8.53;;;2.93;;
9007;SDS011;62813;51.424;6.762;2023-04-25T08:50:23;7.03;;;2.87;;
9007;SDS011;62813;51.424;6.762;2023-04-25T08:52:50;8.57;;;2.53;;
9007;SDS011;62813;51.424;6.762;2023-04-25T08:55:18;8.67;;;2.80;;
9007;SDS011;62813;51.424;6.762;2023-04-25T08:57:46;6.70;;;2.10;;
9007;SDS011;62813;51.424;6.762;2023-04-25T09:00:13;8.47;;;2.30;;
9007;SDS011;62813;51.424;6.762;2023-04-25T09:02:40;7.10;;;2.03;;
9007;SDS011;62813;51.424;6.762;2023-04-25T09:05:08;9.73;;;2.37;;
9007;SDS011;62813;51.424;6.762;2023-04-25T09:07:36;6.50;;;2.17;;
9007;SDS011;62813;51.424;6.762;2023-04-25T09:10:03;8.30;;;2.20;;
9007;SDS011;62813;51.424;6.762;2023-04-25T09:12:29;9.07;;;2.23;;
9007;SDS011;62813;51.424;6.762;2023-04-25T09:17:30;7.40;;;2.37;;
9007;SDS011;62813;51.424;6.762;2023-04-25T09:22:34;14.63;;;3.07;;
9007;SDS011;62813;51.424;6.762;2023-04-25T09:25:02;7.20;;;2.13;;
9007;SDS011;62813;51.424;6.762;2023-04-25T09:27:28;8.03;;;2.00;;
9007;SDS011;62813;51.424;6.762;2023-04-25T09:29:57;11.27;;;2.30;;
9007;SDS011;62813;51.424;6.762;2023-04-25T09:32:24;7.93;;;2.17;;
9007;SDS011;62813;51.424;6.762;2023-04-25T09:34:52;13.53;;;1.90;;
9007;SDS011;62813;51.424;6.762;2023-04-25T09:37:22;6.37;;;2.30;;
9007;SDS011;62813;51.424;6.762;2023-04-25T09:39:50;10.77;;;2.40;;
9007;SDS011;62813;51.424;6.762;2023-04-25T09:42:17;6.00;;;1.70;;
9007;SDS011;62813;51.424;6.762;2023-04-25T09:44:45;9.33;;;1.70;;
9007;SDS011;62813;51.424;6.762;2023-04-25T09:47:14;13.37;;;2.10;;
9007;SDS011;62813;51.424;6.762;2023-04-25T09:49:42;6.27;;;1.90;;
9007;SDS011;62813;51.424;6.762;2023-04-25T09:52:09;7.83;;;2.00;;
9007;SDS011;62813;51.424;6.762;2023-04-25T09:54:39;6.73;;;1.97;;
9007;SDS011;62813;51.424;6.762;2023-04-25T09:57:16;6.40;;;1.83;;
9007;SDS011;62813;51.424;6.762;2023-04-25T09:59:44;6.07;;;1.60;;
9007;SDS011;62813;51.424;6.762;2023-04-25T10:02:11;5.17;;;1.57;;
9007;SDS011;62813;51.424;6.762;2023-04-25T10:04:41;6.03;;;1.63;;
9007;SDS011;62813;51.424;6.762;2023-04-25T10:07:08;7.20;;;1.60;;
9007;SDS011;62813;51.424;6.762;2023-04-25T10:09:38;10.93;;;2.10;;
9007;SDS011;62813;51.424;6.762;2023-04-25T10:12:08;7.43;;;1.70;;
9007;SDS011;62813;51.424;6.762;2023-04-25T10:14:34;7.23;;;1.90;;
9007;SDS011;62813;51.424;6.762;2023-04-25T10:17:01;5.67;;;1.77;;
9007;SDS011;62813;51.424;6.762;2023-04-25T10:19:29;7.80;;;1.90;;
9007;SDS011;62813;51.424;6.762;2023-04-25T10:22:31;6.90;;;2.33;;
9007;SDS011;62813;51.424;6.762;2023-04-25T10:24:49;7.17;;;2.40;;
9007;SDS011;62813;51.424;6.762;2023-04-25T10:27:16;9.37;;;3.23;;
9007;SDS011;62813;51.424;6.762;2023-04-25T10:29:43;8.27;;;3.50;;
9007;SDS011;62813;51.424;6.762;2023-04-25T10:32:10;4.10;;;1.20;;
9007;SDS011;62813;51.424;6.762;2023-04-25T10:34:43;4.70;;;1.87;;
9007;SDS011;62813;51.424;6.762;2023-04-25T10:37:13;3.13;;;1.33;;
9007;SDS011;62813;51.424;6.762;2023-04-25T10:39:40;6.53;;;2.30;;
9007;SDS011;62813;51.424;6.762;2023-04-25T10:42:10;4.57;;;1.50;;
9007;SDS011;62813;51.424;6.762;2023-04-25T10:44:38;4.30;;;1.47;;
9007;SDS011;62813;51.424;6.762;2023-04-25T10:47:06;6.30;;;1.97;;
9007;SDS011;62813;51.424;6.762;2023-04-25T10:49:37;5.13;;;1.67;;
9007;SDS011;62813;51.424;6.762;2023-04-25T10:52:11;3.10;;;1.70;;
9007;SDS011;62813;51.424;6.762;2023-04-25T10:54:54;5.10;;;1.37;;
9007;SDS011;62813;51.424;6.762;2023-04-25T11:02:38;10.27;;;2.60;;
9007;SDS011;62813;51.424;6.762;2023-04-25T11:05:07;10.30;;;2.27;;
9007;SDS011;62813;51.424;6.762;2023-04-25T11:07:50;8.83;;;2.43;;
9007;SDS011;62813;51.424;6.762;2023-04-25T11:10:38;8.17;;;2.60;;
9007;SDS011;62813;51.424;6.762;2023-04-25T11:13:06;9.53;;;3.10;;
9007;SDS011;62813;51.424;6.762;2023-04-25T11:15:32;10.97;;;3.20;;
9007;SDS011;62813;51.424;6.762;2023-04-25T11:17:59;10.33;;;3.23;;
9007;SDS011;62813;51.424;6.762;2023-04-25T11:20:26;8.30;;;2.80;;
9007;SDS011;62813;51.424;6.762;2023-04-25T11:22:56;8.10;;;2.63;;
9007;SDS011;62813;51.424;6.762;2023-04-25T11:25:23;10.30;;;2.83;;
9007;SDS011;62813;51.424;6.762;2023-04-25T11:27:54;8.77;;;2.90;;
9007;SDS011;62813;51.424;6.762;2023-04-25T11:30:22;10.20;;;2.63;;
9007;SDS011;62813;51.424;6.762;2023-04-25T11:32:50;7.07;;;2.37;;
9007;SDS011;62813;51.424;6.762;2023-04-25T11:35:21;11.90;;;2.70;;
9007;SDS011;62813;51.424;6.762;2023-04-25T11:37:49;7.63;;;3.10;;
9007;SDS011;62813;51.424;6.762;2023-04-25T11:40:16;6.87;;;2.43;;
9007;SDS011;62813;51.424;6.762;2023-04-25T11:42:43;7.17;;;2.00;;
9007;SDS011;62813;51.424;6.762;2023-04-25T11:45:10;8.37;;;2.37;;
9007;SDS011;62813;51.424;6.762;2023-04-25T11:47:40;8.83;;;1.93;;
9007;SDS011;62813;51.424;6.762;2023-04-25T11:50:07;7.03;;;2.20;;
9007;SDS011;62813;51.424;6.762;2023-04-25T11:52:44;9.57;;;2.40;;
9007;SDS011;62813;51.424;6.762;2023-04-25T11:55:17;12.77;;;2.30;;
9007;SDS011;62813;51.424;6.762;2023-04-25T11:57:49;6.23;;;2.63;;
9007;SDS011;62813;51.424;6.762;2023-04-25T12:00:19;8.70;;;3.13;;
9007;SDS011;62813;51.424;6.762;2023-04-25T12:02:47;8.10;;;2.90;;
9007;SDS011;62813;51.424;6.762;2023-04-25T12:05:14;8.73;;;3.43;;
9007;SDS011;62813;51.424;6.762;2023-04-25T12:07:57;5.90;;;2.03;;
9007;SDS011;62813;51.424;6.762;2023-04-25T12:10:24;13.43;;;3.03;;
9007;SDS011;62813;51.424;6.762;2023-04-25T12:12:52;6.10;;;2.20;;
9007;SDS011;62813;51.424;6.762;2023-04-25T12:15:23;8.43;;;2.53;;
9007;SDS011;62813;51.424;6.762;2023-04-25T12:17:50;7.77;;;2.60;;
9007;SDS011;62813;51.424;6.762;2023-04-25T12:20:18;8.67;;;2.83;;
9007;SDS011;62813;51.424;6.762;2023-04-25T12:22:47;6.37;;;2.70;;
9007;SDS011;62813;51.424;6.762;2023-04-25T12:25:17;10.43;;;3.10;;
9007;SDS011;62813;51.424;6.762;2023-04-25T12:28:22;8.97;;;2.30;;
9007;SDS011;62813;51.424;6.762;2023-04-25T12:30:59;6.17;;;2.30;;
9007;SDS011;62813;51.424;6.762;2023-04-25T12:33:31;6.07;;;2.50;;
9007;SDS011;62813;51.424;6.762;2023-04-25T12:35:58;3.77;;;1.97;;
9007;SDS011;62813;51.424;6.762;2023-04-25T12:38:26;11.13;;;2.70;;
9007;SDS011;62813;51.424;6.762;2023-04-25T12:40:53;6.10;;;2.60;;
9007;SDS011;62813;51.424;6.762;2023-04-25T12:43:20;5.60;;;2.27;;
9007;SDS011;62813;51.424;6.762;2023-04-25T12:45:53;8.20;;;2.67;;
9007;SDS011;62813;51.424;6.762;2023-04-25T12:48:20;11.90;;;4.13;;
9007;SDS011;62813;51.424;6.762;2023-04-25T12:50:47;12.37;;;4.97;;
9007;SDS011;62813;51.424;6.762;2023-04-25T12:53:18;16.77;;;6.43;;
9007;SDS011;62813;51.424;6.762;2023-04-25T12:55:45;18.63;;;3.80;;
9007;SDS011;62813;51.424;6.762;2023-04-25T12:58:15;9.37;;;3.27;;
9007;SDS011;62813;51.424;6.762;2023-04-25T13:00:42;14.17;;;3.47;;
9007;SDS011;62813;51.424;6.762;2023-04-25T13:03:11;6.77;;;2.70;;
9007;SDS011;62813;51.424;6.762;2023-04-25T13:05:39;8.87;;;1.90;;
9007;SDS011;62813;51.424;6.762;2023-04-25T13:08:06;4.57;;;1.60;;
9007;SDS011;62813;51.424;6.762;2023-04-25T13:10:33;8.93;;;1.73;;
9007;SDS011;62813;51.424;6.762;2023-04-25T13:13:03;5.40;;;1.80;;
9007;SDS011;62813;51.424;6.762;2023-04-25T13:15:29;5.47;;;1.83;;
9007;SDS011;62813;51.424;6.762;2023-04-25T13:17:56;6.33;;;2.00;;
9007;SDS011;62813;51.424;6.762;2023-04-25T13:20:23;11.10;;;2.40;;
9007;SDS011;62813;51.424;6.762;2023-04-25T13:22:49;6.80;;;1.67;;
9007;SDS011;62813;51.424;6.762;2023-04-25T13:25:16;8.33;;;2.20;;
9007;SDS011;62813;51.424;6.762;2023-04-25T13:27:43;8.80;;;2.40;;
9007;SDS011;62813;51.424;6.762;2023-04-25T13:30:11;9.13;;;1.83;;
9007;SDS011;62813;51.424;6.762;2023-04-25T13:32:37;8.97;;;2.23;;
9007;SDS011;62813;51.424;6.762;2023-04-25T13:35:05;6.07;;;2.20;;
9007;SDS011;62813;51.424;6.762;2023-04-25T13:37:35;7.57;;;1.83;;
9007;SDS011;62813;51.424;6.762;2023-04-25T13:40:03;5.13;;;1.80;;
9007;SDS011;62813;51.424;6.762;2023-04-25T13:42:31;8.37;;;2.97;;
9007;SDS011;62813;51.424;6.762;2023-04-25T13:44:58;6.70;;;1.80;;
9007;SDS011;62813;51.424;6.762;2023-04-25T13:47:25;7.17;;;2.00;;
9007;SDS011;62813;51.424;6.762;2023-04-25T13:49:52;6.77;;;1.93;;
9007;SDS011;62813;51.424;6.762;2023-04-25T13:52:18;6.10;;;1.60;;
9007;SDS011;62813;51.424;6.762;2023-04-25T13:54:45;5.27;;;1.77;;
9007;SDS011;62813;51.424;6.762;2023-04-25T13:57:12;7.57;;;1.77;;
9007;SDS011;62813;51.424;6.762;2023-04-25T13:59:39;10.80;;;1.87;;
9007;SDS011;62813;51.424;6.762;2023-04-25T14:02:05;5.37;;;1.67;;
9007;SDS011;62813;51.424;6.762;2023-04-25T14:04:32;8.97;;;2.20;;
9007;SDS011;62813;51.424;6.762;2023-04-25T14:06:59;8.83;;;1.90;;
9007;SDS011;62813;51.424;6.762;2023-04-25T14:09:26;7.50;;;2.33;;
9007;SDS011;62813;51.424;6.762;2023-04-25T14:11:53;8.93;;;2.83;;
9007;SDS011;62813;51.424;6.762;2023-04-25T14:14:21;8.73;;;1.90;;
9007;SDS011;62813;51.424;6.762;2023-04-25T14:16:48;6.67;;;2.20;;
9007;SDS011;62813;51.424;6.762;2023-04-25T14:19:15;5.43;;;1.60;;
9007;SDS011;62813;51.424;6.762;2023-04-25T14:21:42;8.80;;;2.10;;
9007;SDS011;62813;51.424;6.762;2023-04-25T14:24:09;8.13;;;2.10;;
9007;SDS011;62813;51.424;6.762;2023-04-25T14:26:37;5.57;;;1.87;;
9007;SDS011;62813;51.424;6.762;2023-04-25T14:29:04;7.23;;;1.83;;
9007;SDS011;62813;51.424;6.762;2023-04-25T14:31:34;4.87;;;1.40;;
9007;SDS011;62813;51.424;6.762;2023-04-25T14:34:01;6.00;;;1.70;;
9007;SDS011;62813;51.424;6.762;2023-04-25T14:36:28;6.30;;;1.80;;
9007;SDS011;62813;51.424;6.762;2023-04-25T14:38:55;8.37;;;1.93;;
9007;SDS011;62813;51.424;6.762;2023-04-25T14:41:22;4.63;;;1.30;;
9007;SDS011;62813;51.424;6.762;2023-04-25T14:43:49;4.40;;;1.33;;
9007;SDS011;62813;51.424;6.762;2023-04-25T14:46:16;6.80;;;1.70;;
9007;SDS011;62813;51.424;6.762;2023-04-25T14:48:43;5.97;;;1.50;;
9007;SDS011;62813;51.424;6.762;2023-04-25T14:51:09;8.77;;;1.80;;
9007;SDS011;62813;51.424;6.762;2023-04-25T14:53:36;6.73;;;1.60;;
9007;SDS011;62813;51.424;6.762;2023-04-25T14:56:03;5.13;;;1.50;;
9007;SDS011;62813;51.424;6.762;2023-04-25T14:58:30;8.50;;;1.73;;
9007;SDS011;62813;51.424;6.762;2023-04-25T15:00:57;5.33;;;1.60;;
9007;SDS011;62813;51.424;6.762;2023-04-25T15:03:24;3.43;;;1.40;;
9007;SDS011;62813;51.424;6.762;2023-04-25T15:05:51;6.03;;;1.67;;